バンギ・ムポコ国際空港の過去48時間の天気

バンギ・ムポコ国際空港 (Bangui)

現在時刻: 5/23 20:30 WAT (5/23 19:30 UTC) 以下の時間は現地時間です。

過去48時間のMETAR気象情報
時間 風向 風速(m/s) 視程 気温(℃) 湿度(%) 気圧(hPa) 天気現象
23 20:00 北西 2 10km以上 27 89 1009
23 19:00 不定 1 10km以上 28 84 1008
23 18:00 不定 2 10km以上 30 70 1008
23 17:00 西 1 10km以上 31 62 1008
23 16:00 静穏 0 10km以上 30 70 1008
23 15:00 静穏 0 10km以上 29 66 1009
23 14:00 西北西 2 10km以上 29 70 1009
23 13:00 西 2 10km以上 28 70 1010
23 12:00 西南西 2 10km以上 28 74 1011
23 11:00 西 2 10km以上 27 74 1013
23 10:00 西南西 2 10km以上 27 74 1014
23 09:00 4 10km以上 26 79 1016
23 08:00 東南東 3 10km以上 25 89 1015
23 07:00 南東 3 10km以上 22 94 1014
23 06:00 2 10km以上 22 100 1013
23 05:00 静穏 0 10km以上 22 94 1011
23 04:00 静穏 0 10km以上 22 94 1011
23 03:00 静穏 0 10km以上 22 94 1011
23 02:00 不定 1 10km以上 22 94 1011
23 01:00 静穏 0 8000m 22 94 1010
23 00:00 不定 2 8000m 23 94 1011
22 23:00 6 8000m 23 89 1012
22 22:00 東北東 10 7000m 25 74 1013 弱い雷雨
22 21:00 南南東 2 10km以上 28 84 1011
FEFF 231900Z 32003KT CAVOK 27/25 Q1009 NOSIG
FEFF 231800Z VRB02KT 9999 FEW013 28/25 Q1008 NOSIG
FEFF 231700Z VRB03KT 9999 FEW016 30/24 Q1008 NOSIG
FEFF 231600Z 28002KT 9999 SCT016 31/23 Q1008 NOSIG
FEFF 231500Z 00000KT 9999 SCT020 30/24 Q1008 NOSIG
FEFF 231400Z 00000KT 9999 SCT020 29/22 Q1009 NOSIG
FEFF 231300Z 29004KT 9999 SCT020 29/23 Q1009 NOSIG
FEFF 231200Z 28004KT 9999 FEW016 28/22 Q1010 NOSIG
FEFF 231100Z 24003KT 9999 SCT016 28/23 Q1011 NOSIG
FEFF 231000Z 26004KT 9999 SCT016 FEW040CB 27/22 Q1013 TEMPO TS
FEFF 230900Z 24004KT 9999 SCT016 FEW040CB 27/22 Q1014 TEMPO 4000 TSRA
FEFF 230800Z 10007KT 9999 BKN010 FEW033CB 26/22 Q1016 TEMPO 4000 TSRA
FEFF 230700Z 12006KT 9999 SCT010 FEW033CB 25/23 Q1015 TEMPO TS
FEFF 230600Z 14006KT 9999 SCT010 FEW033CB 22/21 Q1014 NOSIG
FEFF 230500Z 18004KT 9999 SCT010 22/22 Q1013 NOSIG
FEFF 230400Z 00000KT 9999 FEW007 22/21 Q1011 NOSIG
FEFF 230300Z 00000KT 9999 FEW007 22/21 Q1011 NOSIG
FEFF 230200Z 00000KT CAVOK 22/21 Q1011 NOSIG
FEFF 230100Z VRB02KT 9999 FEW010 22/21 Q1011 NOSIG
FEFF 230000Z 00000KT 8000 TS FEW010 FEW033CB 22/21 Q1010 BECMG NSW
FEFF 222300Z VRB03KT 8000 TS FEW013 FEW033CB 23/22 Q1011 NOSIG
FEFF 222200Z 35012KT 8000 TS FEW013 FEW033CB 23/21 Q1012 TEMPO 4000 TSRA
FEFF 222100Z 07020KT 7000 -TSRA SCT013 SCT033CB 25/20 Q1013 TEMPO 4000 TSRA BKN010 SCT033CB
FEFF 222000Z 16003KT 9999 TS FEW016 FEW033CB 28/25 Q1011 TEMPO 06020G30KT